Time;durP1;ratioP1;P1;durP2;ratioP2;P2;SDS_P1;SDS_P2;PMS_P1;PMS_P2;Temp;Humidity;BMP_temperature;BMP_pressure;BME280_temperature;BME280_humidity;BME280_pressure;Samples;Min_cycle;Max_cycle;Signal;HPM_P1;HPM_P2
2024/04/25 00:01:00;;;;;;;1.23;0.80;;;8.20;60.60;10.00;100654.00;;;;5306956;26;20726;-77
2024/04/25 00:03:29;;;;;;;1.27;0.85;;;8.10;60.70;9.90;100651.00;;;;5326895;26;20332;-77
2024/04/25 00:06:00;;;;;;;1.15;0.80;;;8.10;60.70;9.90;100648.00;;;;5341016;26;20239;-77
2024/04/25 00:08:28;;;;;;;1.52;0.90;;;8.00;60.60;9.90;100645.00;;;;5328780;26;20403;-77
2024/04/25 00:10:57;;;;;;;1.38;1.02;;;8.00;60.60;9.80;100643.00;;;;5328519;26;20341;-77
2024/04/25 00:13:28;;;;;;;2.33;0.90;;;8.00;60.70;9.80;100641.00;;;;5306274;26;20220;-77
2024/04/25 00:15:58;;;;;;;3.00;0.82;;;7.90;60.60;9.80;100642.00;;;;5324944;26;20228;-77
2024/04/25 00:18:27;;;;;;;1.55;1.00;;;7.90;60.70;9.80;100639.00;;;;5325663;26;20223;-78
2024/04/25 00:20:55;;;;;;;1.55;0.95;;;7.90;60.80;9.70;100633.00;;;;5332957;26;20227;-77
2024/04/25 00:23:27;;;;;;;1.23;1.02;;;7.80;60.80;9.70;100623.00;;;;5357416;26;20384;-78
2024/04/25 00:25:55;;;;;;;1.48;1.13;;;7.80;60.80;9.70;100632.00;;;;5369922;26;20219;-77
2024/04/25 00:28:24;;;;;;;1.92;1.25;;;7.80;60.90;9.60;100632.00;;;;5341106;26;20361;-77
2024/04/25 00:30:52;;;;;;;1.05;0.90;;;7.70;60.80;9.60;100634.00;;;;5337280;26;20332;-77
2024/04/25 00:33:21;;;;;;;2.95;1.10;;;7.70;60.80;9.60;100631.00;;;;5340524;26;20223;-77
2024/04/25 00:35:50;;;;;;;1.52;1.10;;;7.70;60.90;9.60;100633.00;;;;5341832;26;20239;-77
2024/04/25 00:38:19;;;;;;;3.30;0.85;;;7.70;61.00;9.60;100628.00;;;;5341041;26;20365;-77
2024/04/25 00:40:50;;;;;;;1.63;1.10;;;7.70;61.00;9.50;100623.00;;;;5338511;26;20231;-77
2024/04/25 00:43:19;;;;;;;1.38;1.10;;;7.60;61.10;9.50;100615.00;;;;5339966;26;20394;-77
2024/04/25 00:45:47;;;;;;;2.17;1.30;;;7.70;61.30;9.60;100631.00;;;;5322389;26;20229;-78
2024/04/25 00:48:17;;;;;;;2.08;1.25;;;7.70;61.20;9.60;100624.00;;;;5315355;26;20323;-77
2024/04/25 00:50:46;;;;;;;2.10;1.40;;;7.70;61.30;9.60;100626.00;;;;5322710;26;20300;-77
2024/04/25 00:53:15;;;;;;;2.22;1.20;;;7.60;61.30;9.60;100629.00;;;;5332169;26;20247;-77
2024/04/25 00:55:44;;;;;;;3.13;1.20;;;7.60;61.40;9.60;100624.00;;;;5335200;26;20290;-77
2024/04/25 00:58:18;;;;;;;2.20;1.40;;;7.70;61.50;9.60;100621.00;;;;5314048;26;20306;-78
2024/04/25 01:00:50;;;;;;;1.48;0.98;;;7.70;61.60;9.60;100618.00;;;;5338506;26;20231;-77
2024/04/25 01:03:20;;;;;;;2.35;1.35;;;7.70;61.70;9.70;100613.00;;;;5340766;26;20291;-77
2024/04/25 01:05:49;;;;;;;1.65;0.90;;;7.70;61.80;9.70;100612.00;;;;5340307;26;20358;-78
2024/04/25 01:08:17;;;;;;;1.45;1.17;;;7.70;61.80;9.70;100616.00;;;;5325760;26;20224;-77
2024/04/25 01:10:47;;;;;;;1.85;1.05;;;7.70;62.00;9.70;100614.00;;;;5332357;26;20232;-78
2024/04/25 01:13:18;;;;;;;1.52;1.00;;;7.80;62.10;9.70;100615.00;;;;5315559;26;20286;-78
2024/04/25 01:15:47;;;;;;;3.15;1.00;;;7.80;62.10;9.80;100615.00;;;;5331286;26;20291;-78
2024/04/25 01:18:16;;;;;;;2.63;1.45;;;7.80;62.10;9.80;100607.00;;;;5326677;26;20223;-78
2024/04/25 01:20:44;;;;;;;2.40;1.40;;;7.80;62.10;9.80;100604.00;;;;5331901;26;20236;-78
2024/04/25 01:23:14;;;;;;;1.70;1.20;;;7.80;62.00;9.80;100600.00;;;;5340175;26;20357;-78
2024/04/25 01:25:48;;;;;;;1.83;1.30;;;7.90;62.00;9.80;100596.00;;;;5338700;26;20238;-78
2024/04/25 01:28:17;;;;;;;2.35;1.33;;;7.90;62.00;9.80;100593.00;;;;5338873;26;20341;-78
2024/04/25 01:30:48;;;;;;;2.00;1.30;;;7.90;61.90;9.80;100587.00;;;;5328129;26;20221;-78
2024/04/25 01:33:18;;;;;;;4.05;1.63;;;7.90;61.80;9.80;100595.00;;;;5311380;26;20231;-78
2024/04/25 01:35:48;;;;;;;1.77;1.38;;;7.90;61.80;9.80;100590.00;;;;5319944;26;20348;-78
2024/04/25 01:38:20;;;;;;;2.25;1.58;;;7.90;61.70;9.80;100578.00;;;;5340245;26;20231;-78
2024/04/25 01:40:51;;;;;;;1.90;1.10;;;7.90;61.60;9.70;100578.00;;;;5337722;26;20354;-78
2024/04/25 01:43:19;;;;;;;2.13;1.55;;;7.90;61.60;9.70;100574.00;;;;5339928;26;20231;-78
2024/04/25 01:45:48;;;;;;;2.42;1.60;;;7.90;61.50;9.70;100572.00;;;;5339738;26;20332;-78
2024/04/25 01:48:17;;;;;;;3.63;1.27;;;7.90;61.40;9.70;100565.00;;;;5338024;26;20302;-77
2024/04/25 01:50:45;;;;;;;2.63;1.63;;;7.80;61.30;9.70;100565.00;;;;5335397;26;20232;-78
2024/04/25 01:53:14;;;;;;;2.65;1.50;;;7.80;61.30;9.70;100555.00;;;;5342704;26;20231;-78
2024/04/25 01:55:42;;;;;;;4.00;1.70;;;7.80;61.40;9.70;100567.00;;;;5342905;26;20336;-78
2024/04/25 01:58:14;;;;;;;2.05;1.60;;;7.80;61.40;9.60;100570.00;;;;5341883;26;20703;-78
2024/04/25 02:00:42;;;;;;;3.15;1.85;;;7.80;61.40;9.70;100559.00;;;;5340694;26;20374;-78
2024/04/25 02:03:11;;;;;;;2.80;1.90;;;7.80;61.40;9.60;100559.00;;;;5339746;26;20247;-77
2024/04/25 02:05:39;;;;;;;4.97;1.52;;;7.70;61.40;9.60;100558.00;;;;5340890;26;20243;-78
2024/04/25 02:08:08;;;;;;;2.75;1.40;;;7.70;61.40;9.60;100560.00;;;;5317920;26;20311;-78
2024/04/25 02:10:37;;;;;;;6.03;1.50;;;7.70;61.40;9.60;100556.00;;;;5321873;26;20351;-78
2024/04/25 02:13:06;;;;;;;2.67;1.88;;;7.70;61.40;9.60;100556.00;;;;5331675;26;20352;-77
2024/04/25 02:15:37;;;;;;;2.17;1.40;;;7.70;61.30;9.50;100556.00;;;;5332191;26;20452;-78
2024/04/25 02:18:07;;;;;;;4.40;1.45;;;7.70;61.30;9.50;100553.00;;;;5325154;26;20763;-78
2024/04/25 02:26:11;;;;;;;1.70;1.27;;;7.60;61.40;9.50;100554.00;;;;5342689;26;20337;-77
2024/04/25 02:28:40;;;;;;;1.63;1.52;;;7.60;61.40;9.50;100549.00;;;;5324150;26;20791;-76
2024/04/25 02:31:13;;;;;;;2.92;1.58;;;7.60;61.40;9.50;100551.00;;;;5318618;26;20251;-76
2024/04/25 02:33:42;;;;;;;4.45;1.40;;;7.60;61.40;9.50;100547.00;;;;5328735;26;20227;-76
2024/04/25 02:36:10;;;;;;;3.30;1.65;;;7.60;61.40;9.50;100548.00;;;;5332518;26;20235;-76
2024/04/25 02:38:39;;;;;;;1.40;1.27;;;7.60;61.40;9.50;100546.00;;;;5330074;26;20370;-77
2024/04/25 02:41:08;;;;;;;3.00;1.65;;;7.60;61.50;9.50;100546.00;;;;5340473;26;20239;-76
2024/04/25 02:43:36;;;;;;;1.63;1.40;;;7.60;61.60;9.50;100537.00;;;;5340489;26;20704;-76
2024/04/25 02:46:02;;;;;;;2.10;1.50;;;7.60;61.60;9.50;100542.00;;;;5338423;26;20235;-77
2024/04/25 02:48:34;;;;;;;3.15;2.03;;;7.60;61.50;9.50;100537.00;;;;5333437;26;20240;-76
2024/04/25 02:51:00;;;;;;;2.60;1.63;;;7.50;61.50;9.50;100535.00;;;;5326629;26;20341;-76
2024/04/25 02:53:31;;;;;;;2.08;1.40;;;7.60;61.60;9.50;100531.00;;;;5328656;26;20733;-76
2024/04/25 02:55:57;;;;;;;2.30;1.50;;;7.50;61.50;9.40;100539.00;;;;5338154;26;20711;-77
2024/04/25 02:58:25;;;;;;;2.95;1.88;;;7.60;61.50;9.40;100528.00;;;;5341026;26;20588;-77
2024/04/25 03:01:00;;;;;;;3.38;1.23;;;7.50;61.40;9.40;100535.00;;;;5332766;26;20722;-77
2024/04/25 03:03:27;;;;;;;1.55;1.08;;;7.50;61.40;9.40;100534.00;;;;5335745;26;20231;-77
2024/04/25 03:05:58;;;;;;;2.83;1.70;;;7.50;61.50;9.40;100526.00;;;;5339204;26;20294;-78
2024/04/25 03:08:24;;;;;;;1.92;1.30;;;7.50;61.50;9.40;100527.00;;;;5338566;26;20336;-77
2024/04/25 03:10:53;;;;;;;2.70;1.17;;;7.50;61.60;9.40;100531.00;;;;5340160;26;20659;-77
2024/04/25 03:13:19;;;;;;;1.48;1.10;;;7.50;61.60;9.40;100533.00;;;;5316710;26;20321;-77
2024/04/25 03:15:47;;;;;;;3.42;1.30;;;7.50;61.70;9.40;100524.00;;;;5327946;26;20240;-77
2024/04/25 03:18:13;;;;;;;2.67;1.30;;;7.50;61.70;9.50;100517.00;;;;5338468;26;20239;-77
2024/04/25 03:20:42;;;;;;;3.58;1.23;;;7.50;61.80;9.50;100504.00;;;;5340660;26;20822;-77
2024/04/25 03:23:11;;;;;;;2.22;1.33;;;7.50;62.00;9.40;100508.00;;;;5340638;26;20345;-77
2024/04/25 03:25:39;;;;;;;1.60;1.02;;;7.50;62.20;9.50;100495.00;;;;5341401;26;20239;-77
2024/04/25 03:28:07;;;;;;;2.40;1.30;;;7.60;62.20;9.50;100492.00;;;;5331989;26;20304;-77
2024/04/25 03:30:35;;;;;;;1.15;0.90;;;7.60;62.30;9.50;100496.00;;;;5328715;26;20264;-77
2024/04/25 03:33:02;;;;;;;1.23;1.10;;;7.60;62.30;9.50;100494.00;;;;5328209;26;20888;-77
2024/04/25 03:35:30;;;;;;;3.72;1.15;;;7.60;62.40;9.50;100495.00;;;;5335823;26;20337;-77
2024/04/25 03:37:59;;;;;;;3.35;1.10;;;7.60;62.40;9.50;100488.00;;;;5332581;26;20239;-77
2024/04/25 03:40:30;;;;;;;1.83;1.33;;;7.60;62.40;9.50;100486.00;;;;5341775;26;20239;-77
2024/04/25 03:42:58;;;;;;;2.67;1.13;;;7.70;62.60;9.60;100490.00;;;;5340659;26;20234;-77
2024/04/25 03:45:27;;;;;;;1.67;0.98;;;7.70;62.40;9.60;100482.00;;;;5335300;26;20724;-77
2024/04/25 03:47:56;;;;;;;1.73;1.00;;;7.70;62.30;9.60;100492.00;;;;5340685;26;20231;-77
2024/04/25 03:50:25;;;;;;;1.27;0.77;;;7.70;62.30;9.60;100493.00;;;;5340473;26;20266;-78
2024/04/25 03:52:54;;;;;;;2.58;1.00;;;7.70;62.50;9.70;100488.00;;;;5320460;26;20344;-77
2024/04/25 03:55:23;;;;;;;1.73;0.95;;;7.70;62.50;9.70;100486.00;;;;5321697;26;20729;-77
2024/04/25 03:57:54;;;;;;;1.50;1.10;;;7.80;62.50;9.70;100481.00;;;;5338293;26;20341;-77
2024/04/25 04:00:20;;;;;;;2.53;1.13;;;7.80;62.50;9.80;100484.00;;;;5316545;26;20239;-77
2024/04/25 04:02:49;;;;;;;1.80;0.93;;;7.80;62.50;9.80;100481.00;;;;5340356;26;20583;-77
2024/04/25 04:05:18;;;;;;;1.38;0.93;;;7.90;62.60;9.80;100481.00;;;;5315515;26;21179;-77
2024/04/25 04:07:46;;;;;;;1.95;1.08;;;7.90;62.60;9.80;100481.00;;;;5340154;26;20585;-77
2024/04/25 04:10:15;;;;;;;1.42;0.90;;;7.90;62.50;9.90;100487.00;;;;5340183;26;20338;-77
2024/04/25 04:12:44;;;;;;;1.48;0.70;;;7.90;62.50;9.90;100487.00;;;;5340599;26;20297;-78
2024/04/25 04:15:15;;;;;;;3.33;1.10;;;7.90;62.50;9.90;100492.00;;;;5340233;26;20523;-78
2024/04/25 04:17:44;;;;;;;1.55;1.20;;;8.00;62.60;9.90;100488.00;;;;5340340;26;20661;-77
2024/04/25 04:20:12;;;;;;;2.28;1.35;;;8.00;62.50;9.90;100481.00;;;;5340771;26;20896;-77
2024/04/25 04:22:41;;;;;;;1.77;1.00;;;8.00;62.50;9.90;100478.00;;;;5316720;26;20344;-78
2024/04/25 04:25:10;;;;;;;1.30;0.88;;;8.00;62.50;9.90;100485.00;;;;5340059;26;20231;-78
2024/04/25 04:27:39;;;;;;;2.10;1.15;;;8.00;62.40;9.90;100483.00;;;;5340537;26;20336;-78
2024/04/25 04:30:09;;;;;;;2.35;0.93;;;8.00;62.40;9.90;100481.00;;;;5339270;26;20258;-78
2024/04/25 04:32:41;;;;;;;1.10;0.77;;;8.00;62.50;9.90;100483.00;;;;5334034;26;20341;-78
2024/04/25 04:35:09;;;;;;;1.65;1.40;;;8.10;62.50;10.00;100480.00;;;;5337444;26;20291;-78
2024/04/25 04:37:38;;;;;;;3.40;1.17;;;8.10;62.50;10.00;100480.00;;;;5340132;26;20231;-78
2024/04/25 04:40:08;;;;;;;2.25;0.98;;;8.10;62.50;10.00;100481.00;;;;5340289;26;20291;-78
2024/04/25 04:42:36;;;;;;;2.15;0.70;;;8.10;62.50;10.00;100477.00;;;;5340363;26;20231;-77
2024/04/25 04:45:05;;;;;;;1.10;0.93;;;8.10;62.50;10.00;100480.00;;;;5338917;26;20336;-77
2024/04/25 04:47:34;;;;;;;1.35;1.00;;;8.10;62.50;10.00;100480.00;;;;5339756;26;20228;-77
2024/04/25 04:50:06;;;;;;;1.17;0.88;;;8.10;62.50;10.00;100481.00;;;;5332463;26;20240;-78
2024/04/25 04:52:34;;;;;;;1.63;0.82;;;8.10;62.70;10.10;100480.00;;;;5338619;26;20322;-77
2024/04/25 04:55:03;;;;;;;2.50;0.90;;;8.10;62.60;10.10;100493.00;;;;5331698;26;20769;-77
2024/04/25 04:57:31;;;;;;;1.10;0.90;;;8.20;62.80;10.20;100491.00;;;;5334836;26;20255;-78
2024/04/25 05:00:00;;;;;;;1.77;1.00;;;8.20;62.80;10.20;100482.00;;;;5320831;26;20304;-77
2024/04/25 05:02:29;;;;;;;1.90;1.10;;;8.20;62.90;10.20;100476.00;;;;5339883;26;20262;-77
2024/04/25 05:04:57;;;;;;;3.00;1.35;;;8.30;63.00;10.20;100480.00;;;;5331594;26;20251;-78
2024/04/25 05:07:28;;;;;;;2.90;1.10;;;8.30;63.10;10.20;100470.00;;;;5315299;26;20239;-78
2024/04/25 05:09:57;;;;;;;2.78;0.70;;;8.40;63.10;10.30;100468.00;;;;5326132;26;20236;-77
2024/04/25 05:12:25;;;;;;;2.55;0.60;;;8.40;63.10;10.30;100468.00;;;;5316986;26;20338;-78
2024/04/25 05:14:54;;;;;;;1.25;0.75;;;8.40;63.10;10.40;100468.00;;;;5327088;26;20275;-77
2024/04/25 05:17:23;;;;;;;1.63;0.75;;;8.40;63.20;10.40;100469.00;;;;5307730;26;20236;-78
2024/04/25 05:19:51;;;;;;;2.40;0.88;;;8.50;63.30;10.40;100467.00;;;;5332724;26;20324;-78
2024/04/25 05:22:20;;;;;;;1.85;0.73;;;8.50;63.50;10.50;100473.00;;;;5338388;26;20231;-78
2024/04/25 05:24:52;;;;;;;6.07;0.93;;;8.60;63.50;10.50;100463.00;;;;5338718;26;20231;-78
2024/04/25 05:27:21;;;;;;;1.50;0.68;;;8.60;63.50;10.60;100466.00;;;;5332194;26;20749;-78
2024/04/25 05:29:49;;;;;;;1.52;0.85;;;8.70;63.50;10.70;100466.00;;;;5326590;26;20664;-79
2024/04/25 05:32:18;;;;;;;2.78;0.85;;;8.70;63.60;10.70;100467.00;;;;5338752;26;20349;-78
2024/04/25 05:34:49;;;;;;;1.33;0.60;;;8.80;63.70;10.80;100462.00;;;;5342837;26;20595;-78
2024/04/25 05:37:17;;;;;;;2.10;1.23;;;8.90;63.70;10.80;100460.00;;;;5325708;26;20589;-78
2024/04/25 05:39:46;;;;;;;3.10;0.80;;;8.90;63.70;10.90;100466.00;;;;5339799;26;20686;-78
2024/04/25 05:42:17;;;;;;;2.58;1.15;;;8.90;63.60;10.90;100456.00;;;;5313692;26;20573;-78
2024/04/25 05:44:47;;;;;;;0.82;0.57;;;9.00;63.70;11.00;100461.00;;;;5329584;26;20357;-78
2024/04/25 05:47:18;;;;;;;1.08;0.60;;;9.00;63.60;11.00;100454.00;;;;5337710;26;20286;-78
2024/04/25 05:49:46;;;;;;;1.83;0.88;;;9.10;63.50;11.10;100447.00;;;;5334917;26;20374;-78
2024/04/25 05:52:15;;;;;;;1.45;0.50;;;9.10;63.50;11.20;100449.00;;;;5341729;26;20273;-78
2024/04/25 05:54:44;;;;;;;1.77;1.00;;;9.20;63.60;11.20;100459.00;;;;5343544;26;20282;-77
2024/04/25 05:57:13;;;;;;;1.88;0.57;;;9.30;63.60;11.30;100459.00;;;;5341050;26;21182;-77
2024/04/25 05:59:44;;;;;;;1.83;1.08;;;9.40;63.70;11.30;100451.00;;;;5317910;26;20295;-77
2024/04/25 06:02:13;;;;;;;1.38;0.77;;;9.40;63.60;11.40;100453.00;;;;5334291;26;20227;-77
2024/04/25 06:04:42;;;;;;;1.90;0.75;;;9.40;63.60;11.50;100450.00;;;;5339582;26;20232;-77
2024/04/25 06:07:11;;;;;;;1.15;0.77;;;9.50;63.60;11.60;100450.00;;;;5341609;26;20215;-77
2024/04/25 06:09:40;;;;;;;1.77;0.90;;;9.60;63.60;11.60;100455.00;;;;5341957;26;20324;-78
2024/04/25 06:12:09;;;;;;;0.95;0.52;;;9.60;63.60;11.70;100461.00;;;;5342925;26;20274;-77
2024/04/25 06:14:38;;;;;;;1.65;1.00;;;9.70;63.60;11.70;100453.00;;;;5341686;26;20303;-77
2024/04/25 06:17:09;;;;;;;1.73;0.77;;;9.70;63.60;11.80;100452.00;;;;5343213;26;20720;-78
2024/04/25 06:19:38;;;;;;;2.28;0.70;;;9.80;63.70;11.80;100459.00;;;;5342289;26;20847;-77
2024/04/25 06:22:07;;;;;;;1.30;0.85;;;9.90;63.60;11.90;100457.00;;;;5343518;26;20227;-78
2024/04/25 06:24:36;;;;;;;4.47;1.40;;;9.90;63.70;12.00;100459.00;;;;5341798;26;20337;-78
2024/04/25 06:27:04;;;;;;;4.32;1.38;;;10.00;63.80;12.00;100455.00;;;;5336797;26;20233;-78
2024/04/25 06:29:33;;;;;;;2.17;1.15;;;10.10;63.90;12.10;100451.00;;;;5339112;26;20243;-77
2024/04/25 06:32:01;;;;;;;2.65;1.40;;;10.10;63.80;12.20;100448.00;;;;5342468;26;20713;-77
2024/04/25 06:34:33;;;;;;;8.25;1.70;;;10.20;63.80;12.20;100448.00;;;;5342990;26;20219;-78
2024/04/25 06:37:04;;;;;;;2.33;1.20;;;10.30;63.90;12.30;100446.00;;;;5340686;26;20277;-78
2024/04/25 06:39:33;;;;;;;2.22;1.70;;;10.30;63.90;12.40;100453.00;;;;5340456;26;20219;-78
2024/04/25 06:42:02;;;;;;;2.80;1.60;;;10.50;63.90;12.50;100453.00;;;;5342325;26;20224;-78
2024/04/25 06:44:31;;;;;;;1.33;1.17;;;10.50;63.80;12.60;100460.00;;;;5312133;26;20237;-78
2024/04/25 06:47:00;;;;;;;3.03;1.63;;;10.60;63.80;12.70;100450.00;;;;5341596;26;20215;-78
2024/04/25 06:49:28;;;;;;;4.30;1.55;;;10.70;63.80;12.70;100447.00;;;;5328593;26;20232;-78
2024/04/25 06:52:01;;;;;;;2.42;1.25;;;10.80;63.80;12.80;100438.00;;;;5307726;26;20339;-78
2024/04/25 06:54:30;;;;;;;3.85;1.48;;;10.90;63.80;12.90;100435.00;;;;5308076;26;20220;-78
2024/04/25 06:56:59;;;;;;;4.80;2.20;;;10.90;63.50;13.00;100437.00;;;;5313494;26;20236;-78
2024/04/25 06:59:27;;;;;;;3.13;1.63;;;11.00;63.40;13.10;100438.00;;;;5342731;26;20227;-79
2024/04/25 07:01:57;;;;;;;2.45;1.40;;;11.10;63.40;13.10;100431.00;;;;5325583;26;20232;-78
2024/04/25 07:04:26;;;;;;;2.92;1.50;;;11.20;63.40;13.20;100431.00;;;;5341767;26;20223;-78
2024/04/25 07:06:54;;;;;;;2.08;1.23;;;11.30;63.20;13.30;100432.00;;;;5323704;26;20371;-79
2024/04/25 07:09:26;;;;;;;2.55;1.48;;;11.40;63.20;13.40;100422.00;;;;5307920;26;20220;-78
2024/04/25 07:11:55;;;;;;;2.47;1.25;;;11.50;62.80;13.50;100424.00;;;;5307972;26;20741;-78
2024/04/25 07:14:23;;;;;;;3.15;1.00;;;11.50;62.70;13.50;100432.00;;;;5318414;26;20227;-78
2024/04/25 07:16:52;;;;;;;3.20;1.30;;;11.60;62.60;13.60;100433.00;;;;5342481;26;20223;-78
2024/04/25 07:19:21;;;;;;;5.03;1.27;;;11.70;62.40;13.60;100442.00;;;;5341013;26;20297;-78
2024/04/25 07:21:49;;;;;;;2.13;1.02;;;11.70;62.20;13.70;100431.00;;;;5341446;26;20336;-79
2024/04/25 07:24:18;;;;;;;6.03;2.35;;;11.80;62.10;13.70;100426.00;;;;5341342;26;20348;-78
2024/04/25 07:26:49;;;;;;;4.22;1.73;;;11.90;62.80;13.80;100431.00;;;;5341064;26;20227;-78
2024/04/25 07:29:18;;;;;;;2.35;0.95;;;11.90;62.10;13.80;100426.00;;;;5341469;26;20289;-79
2024/04/25 07:31:46;;;;;;;4.07;1.35;;;12.00;61.90;13.90;100426.00;;;;5326335;26;20390;-78
2024/04/25 07:34:15;;;;;;;1.40;0.98;;;12.00;61.60;13.90;100420.00;;;;5340879;26;20308;-78
2024/04/25 07:36:44;;;;;;;4.53;1.02;;;12.10;61.40;13.90;100424.00;;;;5340801;26;20793;-78
2024/04/25 07:39:12;;;;;;;3.53;1.00;;;12.10;61.30;14.00;100430.00;;;;5340244;26;20670;-78
2024/04/25 07:41:41;;;;;;;2.63;1.02;;;12.10;61.10;14.00;100433.00;;;;5340793;26;20330;-78
2024/04/25 07:44:12;;;;;;;7.28;1.35;;;12.20;61.00;14.10;100429.00;;;;5316554;26;20296;-79
2024/04/25 07:46:40;;;;;;;3.00;0.90;;;12.20;60.80;14.10;100433.00;;;;5305856;26;20232;-79
2024/04/25 07:49:12;;;;;;;1.42;0.90;;;12.30;60.90;14.20;100422.00;;;;5319986;26;20284;-79
2024/04/25 07:51:40;;;;;;;3.95;0.90;;;12.30;60.70;14.20;100422.00;;;;5307669;26;20224;-78
2024/04/25 07:54:09;;;;;;;2.00;1.42;;;12.40;60.70;14.30;100421.00;;;;5333776;26;20235;-78
2024/04/25 07:56:38;;;;;;;2.15;1.23;;;12.40;60.70;14.40;100413.00;;;;5342044;26;20306;-77
2024/04/25 07:59:06;;;;;;;3.10;1.23;;;12.50;60.60;14.40;100414.00;;;;5342770;26;20219;-78
2024/04/25 08:01:38;;;;;;;2.88;1.23;;;12.60;60.60;14.40;100424.00;;;;5330805;26;20343;-78
2024/04/25 08:04:10;;;;;;;3.88;1.20;;;12.60;60.30;14.50;100415.00;;;;5307680;26;20251;-78
2024/04/25 08:06:39;;;;;;;4.28;1.13;;;12.70;60.20;14.50;100423.00;;;;5337735;26;20756;-78
2024/04/25 08:09:08;;;;;;;3.92;1.30;;;12.70;60.20;14.50;100417.00;;;;5342601;26;20219;-77
2024/04/25 08:11:37;;;;;;;7.18;1.33;;;12.70;59.70;14.50;100425.00;;;;5342384;26;20219;-77
2024/04/25 08:14:05;;;;;;;3.83;1.25;;;12.70;59.40;14.50;100424.00;;;;5341805;26;20238;-77
2024/04/25 08:16:38;;;;;;;2.22;1.25;;;12.70;59.10;14.50;100420.00;;;;5341945;26;20793;-77
2024/04/25 08:19:06;;;;;;;3.00;1.25;;;12.70;59.00;14.50;100421.00;;;;5341108;26;20216;-78
2024/04/25 08:21:35;;;;;;;3.40;0.95;;;12.70;58.90;14.50;100415.00;;;;5340684;26;20235;-77
2024/04/25 08:24:04;;;;;;;1.63;0.98;;;12.70;58.80;14.40;100416.00;;;;5341021;26;20262;-78
2024/04/25 08:26:33;;;;;;;3.22;0.85;;;12.70;58.50;14.40;100421.00;;;;5341709;26;20219;-78
2024/04/25 08:29:01;;;;;;;1.52;0.80;;;12.70;58.50;14.40;100416.00;;;;5341270;26;20325;-78
2024/04/25 08:31:30;;;;;;;2.33;0.80;;;12.70;58.60;14.40;100418.00;;;;5312213;26;20341;-78
2024/04/25 08:34:02;;;;;;;1.92;0.60;;;12.70;58.50;14.40;100416.00;;;;5306844;26;20322;-78
2024/04/25 08:36:31;;;;;;;3.45;0.80;;;12.70;58.40;14.50;100422.00;;;;5321283;26;20299;-78
2024/04/25 08:38:59;;;;;;;1.25;0.60;;;12.80;58.30;14.40;100412.00;;;;5318277;26;20338;-78
2024/04/25 08:41:28;;;;;;;0.70;0.50;;;12.70;58.10;14.40;100416.00;;;;5335447;26;20340;-77
2024/04/25 08:43:57;;;;;;;1.88;0.70;;;12.70;58.00;14.40;100410.00;;;;5340312;26;20345;-77
2024/04/25 08:46:29;;;;;;;1.00;0.52;;;12.80;58.00;14.40;100415.00;;;;5329618;26;20282;-79
2024/04/25 08:49:03;;;;;;;3.15;0.40;;;12.70;57.90;14.40;100414.00;;;;5341064;26;20266;-78
2024/04/25 08:51:34;;;;;;;1.90;0.55;;;12.70;57.70;14.40;100404.00;;;;5339555;26;20336;-78
2024/04/25 08:54:05;;;;;;;1.63;0.70;;;12.70;57.70;14.40;100412.00;;;;5341576;26;20219;-78
2024/04/25 08:56:33;;;;;;;1.30;0.82;;;12.70;57.60;14.40;100408.00;;;;5339296;26;20219;-78
2024/04/25 08:59:02;;;;;;;1.90;0.65;;;12.70;57.60;14.40;100405.00;;;;5312404;26;20352;-78
2024/04/25 09:01:33;;;;;;;1.77;0.65;;;12.70;57.60;14.50;100408.00;;;;5318674;26;20286;-77
2024/04/25 09:04:07;;;;;;;2.75;0.60;;;12.70;57.70;14.50;100399.00;;;;5344398;26;20332;-77
2024/04/25 09:06:36;;;;;;;1.08;0.70;;;12.70;57.70;14.60;100400.00;;;;5344528;26;20319;-77
2024/04/25 09:09:05;;;;;;;1.27;0.50;;;12.80;57.80;14.70;100392.00;;;;5344095;26;20819;-77
2024/04/25 09:11:34;;;;;;;0.80;0.45;;;12.80;57.90;14.80;100391.00;;;;5344339;26;20219;-78
2024/04/25 09:14:02;;;;;;;1.00;0.45;;;12.90;58.10;14.90;100399.00;;;;5343563;26;20254;-77
2024/04/25 09:16:31;;;;;;;2.75;0.80;;;12.90;58.20;15.00;100400.00;;;;5344331;26;20231;-77
2024/04/25 09:19:00;;;;;;;2.47;1.13;;;13.00;58.20;15.10;100387.00;;;;5343306;26;20329;-78
2024/04/25 09:21:31;;;;;;;1.25;0.80;;;13.10;58.30;15.10;100384.00;;;;5343792;26;20336;-78
2024/04/25 09:23:59;;;;;;;2.80;0.98;;;13.20;58.40;15.20;100386.00;;;;5341381;26;20239;-77
2024/04/25 09:26:30;;;;;;;5.28;1.20;;;13.30;58.40;15.20;100388.00;;;;5309834;26;20290;-78
2024/04/25 09:28:59;;;;;;;3.78;1.35;;;13.40;58.20;15.30;100385.00;;;;5307976;26;20231;-78
2024/04/25 09:31:29;;;;;;;1.60;1.00;;;13.40;58.00;15.30;100378.00;;;;5336844;26;20219;-78
2024/04/25 09:33:58;;;;;;;1.90;1.05;;;13.50;58.00;15.40;100368.00;;;;5338364;26;20318;-77
2024/04/25 09:36:27;;;;;;;2.83;1.00;;;13.50;57.80;15.40;100366.00;;;;5336057;26;20737;-77
2024/04/25 09:38:58;;;;;;;3.17;1.38;;;13.50;57.60;15.30;100371.00;;;;5328047;26;20232;-78
2024/04/25 09:41:29;;;;;;;2.95;1.23;;;13.60;57.50;15.40;100365.00;;;;5344026;26;20279;-77
2024/04/25 09:43:59;;;;;;;4.07;1.35;;;13.60;57.50;15.40;100364.00;;;;5343082;26;20216;-77
2024/04/25 09:46:38;;;;;;;5.35;1.80;;;13.60;57.50;15.40;100358.00;;;;5322513;26;20243;-77
2024/04/25 09:49:09;;;;;;;2.97;1.10;;;13.60;57.30;15.40;100356.00;;;;5308451;26;20258;-78
2024/04/25 09:51:48;;;;;;;2.58;1.13;;;13.60;57.30;15.40;100357.00;;;;5308782;26;20535;-77
2024/04/25 09:54:28;;;;;;;3.50;1.08;;;13.60;57.30;15.40;100356.00;;;;5309129;26;20332;-77
2024/04/25 09:57:06;;;;;;;3.22;1.48;;;13.60;57.20;15.40;100355.00;;;;5309370;26;20363;-78
2024/04/25 09:59:46;;;;;;;3.88;1.48;;;13.70;57.30;15.50;100357.00;;;;5334800;26;20266;-77
2024/04/25 10:02:19;;;;;;;3.60;1.60;;;13.70;57.40;15.50;100358.00;;;;5343515;26;20304;-77
2024/04/25 10:04:48;;;;;;;2.17;1.25;;;13.70;57.40;15.50;100354.00;;;;5342507;26;20211;-77
2024/04/25 10:07:18;;;;;;;3.55;1.23;;;13.70;57.20;15.40;100370.00;;;;5341529;26;20243;-77
2024/04/25 10:09:51;;;;;;;2.75;0.95;;;13.70;57.00;15.30;100381.00;;;;5343472;26;20227;-78
2024/04/25 10:12:25;;;;;;;1.10;0.80;;;13.60;56.80;15.20;100374.00;;;;5343849;26;20330;-77
2024/04/25 10:14:59;;;;;;;2.92;1.02;;;13.50;56.70;15.10;100369.00;;;;5341645;26;20240;-77
2024/04/25 10:17:30;;;;;;;1.70;0.77;;;13.50;56.70;15.00;100368.00;;;;5341987;26;20234;-78
2024/04/25 10:20:01;;;;;;;1.65;0.93;;;13.30;56.70;14.90;100366.00;;;;5341865;26;20227;-77
2024/04/25 10:22:30;;;;;;;2.60;0.70;;;13.20;56.80;14.90;100358.00;;;;5342808;26;20304;-77
2024/04/25 10:25:03;;;;;;;1.90;0.88;;;13.20;57.00;14.80;100365.00;;;;5342970;26;20278;-77
2024/04/25 10:27:34;;;;;;;2.55;0.70;;;13.10;57.50;14.90;100362.00;;;;5341803;26;20286;-77
2024/04/25 10:30:05;;;;;;;2.20;0.60;;;13.00;57.90;14.90;100356.00;;;;5343050;26;20219;-77
2024/04/25 10:32:35;;;;;;;1.88;0.70;;;13.00;58.30;14.90;100354.00;;;;5342409;26;20324;-78
2024/04/25 10:35:04;;;;;;;4.05;1.10;;;12.90;58.30;14.90;100353.00;;;;5342171;26;20231;-78
2024/04/25 10:37:38;;;;;;;3.45;0.90;;;13.00;58.40;14.80;100344.00;;;;5343242;26;20212;-76
2024/04/25 10:40:14;;;;;;;4.80;1.00;;;12.90;58.40;14.80;100337.00;;;;5310836;26;20223;-77
2024/04/25 10:42:43;;;;;;;2.78;0.82;;;12.90;58.40;14.90;100331.00;;;;5308774;26;20336;-78
2024/04/25 10:45:12;;;;;;;4.18;0.90;;;13.00;58.50;14.80;100337.00;;;;5320736;26;20303;-77
2024/04/25 10:47:42;;;;;;;3.00;1.30;;;13.00;58.40;14.90;100338.00;;;;5342165;26;20219;-77
2024/04/25 10:50:10;;;;;;;2.70;0.85;;;13.00;58.30;14.90;100333.00;;;;5321230;26;20745;-77
2024/04/25 10:52:39;;;;;;;2.50;0.70;;;13.10;58.60;15.00;100336.00;;;;5331108;26;20337;-77
2024/04/25 10:55:11;;;;;;;1.83;0.70;;;13.10;58.90;15.00;100324.00;;;;5334527;26;20303;-77
2024/04/25 10:57:40;;;;;;;2.25;0.85;;;13.20;58.50;15.10;100319.00;;;;5329058;26;20369;-77
2024/04/25 11:00:10;;;;;;;1.35;0.70;;;13.30;58.60;15.20;100314.00;;;;5327121;26;20239;-78
2024/04/25 11:02:39;;;;;;;2.40;0.93;;;13.30;59.10;15.30;100313.00;;;;5326098;26;20332;-77
2024/04/25 11:05:09;;;;;;;1.05;0.57;;;13.40;58.60;15.40;100306.00;;;;5330204;26;20236;-77
2024/04/25 11:07:40;;;;;;;2.10;0.73;;;13.50;58.60;15.40;100310.00;;;;5334614;26;21040;-77
2024/04/25 11:10:15;;;;;;;2.33;1.00;;;13.60;58.50;15.50;100307.00;;;;5342213;26;20219;-77